createdAt,value
2018-09-08T00:01:00.760Z,96.80
2018-09-08T00:03:28.953Z,97.00
2018-09-08T00:05:57.103Z,97.40
2018-09-08T00:08:25.273Z,97.30
2018-09-08T00:10:53.446Z,97.40
2018-09-08T00:13:21.617Z,97.40
2018-09-08T00:15:55.117Z,97.70
2018-09-08T00:18:28.623Z,97.90
2018-09-08T00:21:02.174Z,98.10
2018-09-08T00:23:35.731Z,98.20
2018-09-08T00:26:09.324Z,98.20
2018-09-08T00:29:00.932Z,98.30
2018-09-08T00:31:29.099Z,98.50
2018-09-08T00:33:57.327Z,98.50
2018-09-08T00:36:25.512Z,98.60
2018-09-08T00:38:53.672Z,98.90
2018-09-08T00:41:21.825Z,99.10
2018-09-08T00:43:49.990Z,98.60
2018-09-08T00:46:18.233Z,99.00
2018-09-08T00:48:46.397Z,98.50
2018-09-08T00:51:14.556Z,98.80
2018-09-08T00:53:42.738Z,98.80
2018-09-08T00:56:10.919Z,98.80
2018-09-08T00:58:39.105Z,98.80
2018-09-08T01:01:07.265Z,98.70
2018-09-08T01:03:35.499Z,98.70
2018-09-08T01:08:56.229Z,98.70
2018-09-08T01:11:24.755Z,98.90
2018-09-08T01:13:53.099Z,99.00
2018-09-08T01:16:21.836Z,98.80
2018-09-08T01:18:50.095Z,98.90
2018-09-08T01:21:18.257Z,99.00
2018-09-08T01:23:51.076Z,99.00
2018-09-08T01:26:19.847Z,98.70
2018-09-08T01:28:48.348Z,98.50
2018-09-08T01:31:16.578Z,98.50
2018-09-08T01:33:44.728Z,98.40
2018-09-08T01:36:12.904Z,98.60
2018-09-08T01:38:41.076Z,99.20
2018-09-08T01:41:09.548Z,98.70
2018-09-08T01:43:37.755Z,98.70
2018-09-08T01:46:06.207Z,98.60
2018-09-08T01:48:34.384Z,98.70
2018-09-08T01:51:02.633Z,98.80
2018-09-08T01:53:30.779Z,98.90
2018-09-08T01:55:59.127Z,98.80
2018-09-08T01:58:27.277Z,98.70
2018-09-08T02:00:55.440Z,98.70
2018-09-08T02:03:23.600Z,98.60
2018-09-08T02:06:12.152Z,98.50
2018-09-08T02:08:40.357Z,98.50
2018-09-08T02:11:08.505Z,98.80
2018-09-08T02:13:36.670Z,98.40
2018-09-08T02:16:04.832Z,98.40
2018-09-08T02:18:32.984Z,98.40
2018-09-08T02:21:01.160Z,98.50
2018-09-08T02:23:29.366Z,98.80
2018-09-08T02:25:57.540Z,99.00
2018-09-08T02:28:25.916Z,99.10
2018-09-08T02:30:54.096Z,99.40
2018-09-08T02:33:22.300Z,99.60
2018-09-08T02:35:50.524Z,99.70
2018-09-08T02:38:18.715Z,99.80
2018-09-08T02:40:46.873Z,99.70
2018-09-08T02:43:15.068Z,99.90
2018-09-08T02:45:43.276Z,99.90
2018-09-08T02:48:11.460Z,99.90
2018-09-08T02:50:40.429Z,99.90
2018-09-08T02:53:13.644Z,99.90
2018-09-08T02:55:40.933Z,99.90
2018-09-08T02:58:08.104Z,99.90
2018-09-08T03:00:35.320Z,99.90
2018-09-08T03:03:02.536Z,99.90
2018-09-08T03:05:29.720Z,99.90
2018-09-08T03:07:56.900Z,99.90
2018-09-08T03:10:24.167Z,99.90
2018-09-08T03:12:51.340Z,99.90
2018-09-08T03:15:18.556Z,99.90
2018-09-08T03:17:45.743Z,99.90
2018-09-08T03:20:12.912Z,99.90
2018-09-08T03:22:40.096Z,99.90
2018-09-08T03:25:07.256Z,99.90
2018-09-08T03:27:34.420Z,99.90
2018-09-08T03:30:01.624Z,99.90
2018-09-08T03:32:28.798Z,99.90
2018-09-08T03:34:55.963Z,99.90
2018-09-08T03:37:23.142Z,99.90
2018-09-08T03:39:50.313Z,99.90
2018-09-08T03:42:17.475Z,99.90
2018-09-08T03:44:44.641Z,99.90
2018-09-08T03:47:11.812Z,99.90
2018-09-08T03:49:38.995Z,99.90
2018-09-08T03:52:06.180Z,99.90
2018-09-08T03:54:33.351Z,99.90
2018-09-08T03:57:00.531Z,99.90
2018-09-08T03:59:27.736Z,99.90
2018-09-08T04:01:54.907Z,99.90
2018-09-08T04:04:23.172Z,99.90
2018-09-08T04:06:51.496Z,99.90
2018-09-08T04:09:19.676Z,99.90
2018-09-08T04:11:47.891Z,99.90
2018-09-08T04:14:16.050Z,99.90
2018-09-08T04:16:44.205Z,99.90
2018-09-08T04:19:12.355Z,99.90
2018-09-08T04:21:40.528Z,99.90
2018-09-08T04:24:08.810Z,99.90
2018-09-08T04:26:36.868Z,99.90
2018-09-08T04:29:05.032Z,99.90
2018-09-08T04:31:33.201Z,99.90
2018-09-08T04:34:01.371Z,99.90
2018-09-08T04:36:29.537Z,99.90
2018-09-08T04:39:00.448Z,99.90
2018-09-08T04:41:29.658Z,99.90
2018-09-08T04:43:57.949Z,99.90
2018-09-08T04:46:26.221Z,99.90
2018-09-08T04:48:54.514Z,99.90
2018-09-08T04:51:22.766Z,99.90
2018-09-08T04:53:51.005Z,99.90
2018-09-08T04:56:19.265Z,99.90
2018-09-08T04:58:47.556Z,99.90
2018-09-08T05:01:15.820Z,99.90
2018-09-08T05:03:44.083Z,99.90
2018-09-08T05:06:12.358Z,99.90
2018-09-08T05:08:40.741Z,99.90
2018-09-08T05:11:08.990Z,99.90
2018-09-08T05:13:37.259Z,99.90
2018-09-08T05:16:05.741Z,99.90
2018-09-08T05:18:33.987Z,99.90
2018-09-08T05:21:02.282Z,99.90
2018-09-08T05:23:30.552Z,99.90
2018-09-08T05:25:58.826Z,99.90
2018-09-08T05:28:27.140Z,99.90
2018-09-08T05:30:55.353Z,99.90
2018-09-08T05:33:23.571Z,99.90
2018-09-08T05:35:51.780Z,99.90
2018-09-08T05:38:20.098Z,99.90
2018-09-08T05:40:49.420Z,99.90
2018-09-08T05:43:17.814Z,99.90
2018-09-08T05:45:46.069Z,99.90
2018-09-08T05:48:14.610Z,99.90
2018-09-08T05:50:43.117Z,99.90
2018-09-08T05:53:11.339Z,99.90
2018-09-08T05:55:39.546Z,99.90
2018-09-08T05:58:07.977Z,99.90
2018-09-08T06:00:36.270Z,99.90
2018-09-08T06:03:04.565Z,99.90
2018-09-08T06:05:32.840Z,99.90
2018-09-08T06:08:01.084Z,99.90
2018-09-08T06:10:29.353Z,99.90
2018-09-08T06:12:57.653Z,99.90
2018-09-08T06:15:25.869Z,99.90
2018-09-08T06:17:54.180Z,99.90
2018-09-08T06:20:22.456Z,99.90
2018-09-08T06:22:50.724Z,99.90
2018-09-08T06:25:18.977Z,99.90
2018-09-08T06:27:47.197Z,99.90
2018-09-08T06:30:15.418Z,99.90
2018-09-08T06:32:43.734Z,99.90
2018-09-08T06:35:12.097Z,99.90
2018-09-08T06:37:40.312Z,99.90
2018-09-08T06:40:08.577Z,99.90
2018-09-08T06:42:37.724Z,99.90
2018-09-08T06:45:06.256Z,99.90
2018-09-08T06:47:34.397Z,99.90
2018-09-08T06:50:02.750Z,99.90
2018-09-08T06:52:31.028Z,99.90
2018-09-08T06:54:59.311Z,99.90
2018-09-08T06:57:27.565Z,99.90
2018-09-08T06:59:55.873Z,99.90
2018-09-08T07:02:24.101Z,99.90
2018-09-08T07:04:52.332Z,99.90
2018-09-08T07:07:20.569Z,99.40
2018-09-08T07:09:48.883Z,98.60
2018-09-08T07:12:17.231Z,98.00
2018-09-08T07:14:45.504Z,96.90
2018-09-08T07:17:13.701Z,96.10
2018-09-08T07:19:41.929Z,95.50
2018-09-08T07:22:10.225Z,94.40
2018-09-08T07:24:38.559Z,93.70
2018-09-08T07:27:06.909Z,93.00
2018-09-08T07:29:35.200Z,92.10
2018-09-08T07:32:03.531Z,90.10
2018-09-08T07:34:31.796Z,84.70
2018-09-08T07:36:59.961Z,80.00
2018-09-08T07:39:28.123Z,78.80
2018-09-08T07:41:56.288Z,77.60
2018-09-08T07:44:24.632Z,77.20
2018-09-08T07:46:53.119Z,78.80
2018-09-08T07:51:49.346Z,69.50
2018-09-08T07:54:17.596Z,69.10
2018-09-08T07:56:45.802Z,68.30
2018-09-08T07:59:14.337Z,67.90
2018-09-08T08:01:42.569Z,65.90
2018-09-08T08:04:10.711Z,66.40
2018-09-08T08:06:38.854Z,68.50
2018-09-08T08:09:07.744Z,70.40
2018-09-08T08:11:35.999Z,69.40
2018-09-08T08:14:04.424Z,67.80
2018-09-08T08:16:34.917Z,64.10
2018-09-08T08:19:03.172Z,62.30
2018-09-08T08:21:31.378Z,55.00
2018-09-08T08:23:59.565Z,53.50
2018-09-08T08:26:27.715Z,52.60
2018-09-08T08:28:55.944Z,49.00
2018-09-08T08:31:24.140Z,48.10
2018-09-08T08:33:52.363Z,45.60
2018-09-08T08:36:20.580Z,45.60
2018-09-08T08:38:48.835Z,43.60
2018-09-08T08:41:17.016Z,44.80
2018-09-08T08:43:45.205Z,47.90
2018-09-08T08:46:13.447Z,49.90
2018-09-08T08:48:41.638Z,52.00
2018-09-08T08:51:21.310Z,54.70
2018-09-08T08:54:01.020Z,56.00
2018-09-08T08:56:29.240Z,56.80
2018-09-08T08:58:57.448Z,58.50
2018-09-08T09:01:25.993Z,59.30
2018-09-08T09:03:54.221Z,61.00
2018-09-08T09:06:22.408Z,60.00
2018-09-08T09:08:50.634Z,60.00
2018-09-08T09:11:18.855Z,57.40
2018-09-08T09:13:47.096Z,56.40
2018-09-08T09:16:15.358Z,55.60
2018-09-08T09:18:55.172Z,54.50
2018-09-08T09:21:34.444Z,49.60
2018-09-08T09:24:25.151Z,47.80
2018-09-08T09:26:52.999Z,48.50
2018-09-08T09:29:21.382Z,46.90
2018-09-08T09:31:49.589Z,48.50
2018-09-08T09:34:17.814Z,46.70
2018-09-08T09:36:46.024Z,45.70
2018-09-08T09:39:14.233Z,45.50
2018-09-08T09:41:42.723Z,45.70
2018-09-08T09:44:11.754Z,47.50
2018-09-08T09:46:39.982Z,45.60
2018-09-08T09:49:08.217Z,47.60
2018-09-08T09:51:36.413Z,47.70
2018-09-08T09:54:04.637Z,47.50
2018-09-08T09:56:32.865Z,47.30
2018-09-08T09:59:01.094Z,45.60
2018-09-08T10:01:34.835Z,45.90
2018-09-08T10:04:03.224Z,45.20
2018-09-08T10:06:31.665Z,46.10
2018-09-08T10:09:00.215Z,44.30
2018-09-08T10:11:28.561Z,46.50
2018-09-08T10:13:57.109Z,48.50
2018-09-08T10:16:25.450Z,47.40
2018-09-08T10:18:54.374Z,45.90
2018-09-08T10:21:22.582Z,44.10
2018-09-08T10:24:04.340Z,43.40
2018-09-08T10:26:19.313Z,44.50
2018-09-08T10:28:47.489Z,45.10
2018-09-08T10:31:15.663Z,44.30
2018-09-08T10:33:43.871Z,44.70
2018-09-08T10:36:12.044Z,45.20
2018-09-08T10:38:40.223Z,42.20
2018-09-08T10:41:08.376Z,41.80
2018-09-08T10:43:36.573Z,41.00
2018-09-08T10:46:04.708Z,39.80
2018-09-08T10:48:32.892Z,44.00
2018-09-08T10:51:18.468Z,44.10
2018-09-08T10:53:46.713Z,48.90
2018-09-08T10:56:14.976Z,49.50
2018-09-08T10:58:43.197Z,54.00
2018-09-08T11:01:11.356Z,53.20
2018-09-08T11:03:39.532Z,52.90
2018-09-08T11:06:07.694Z,53.40
2018-09-08T11:08:35.984Z,53.60
2018-09-08T11:11:04.149Z,54.10
2018-09-08T11:13:32.351Z,53.50
2018-09-08T11:16:00.512Z,54.10
2018-09-08T11:18:28.652Z,55.30
2018-09-08T11:20:56.820Z,56.70
2018-09-08T11:25:52.911Z,58.30
2018-09-08T11:28:21.088Z,58.80
2018-09-08T11:30:49.306Z,59.00
2018-09-08T11:33:17.500Z,57.30
2018-09-08T11:35:45.696Z,56.30
2018-09-08T11:38:13.951Z,55.20
2018-09-08T11:40:42.063Z,54.50
2018-09-08T11:43:10.220Z,55.20
2018-09-08T11:45:38.393Z,54.80
2018-09-08T11:48:06.564Z,54.50
2018-09-08T11:50:34.736Z,54.10
2018-09-08T11:53:02.984Z,55.30
2018-09-08T11:55:31.161Z,56.10
2018-09-08T11:57:59.261Z,55.60
2018-09-08T12:00:27.464Z,56.50
2018-09-08T12:02:55.636Z,56.30
2018-09-08T12:05:23.783Z,55.40
2018-09-08T12:07:51.933Z,56.00
2018-09-08T12:10:20.108Z,55.90
2018-09-08T12:12:49.284Z,56.10
2018-09-08T12:15:17.497Z,57.00
2018-09-08T12:17:45.723Z,58.60
2018-09-08T12:20:13.890Z,59.10
2018-09-08T12:22:42.044Z,58.20
2018-09-08T12:25:10.200Z,58.80
2018-09-08T12:27:38.366Z,56.50
2018-09-08T12:30:06.781Z,55.30
2018-09-08T12:32:34.993Z,56.30
2018-09-08T12:35:03.096Z,55.90
2018-09-08T12:37:31.259Z,55.10
2018-09-08T12:39:59.412Z,54.90
2018-09-08T12:42:27.548Z,54.40
2018-09-08T12:44:55.793Z,56.80
2018-09-08T12:47:23.949Z,57.50
2018-09-08T12:49:52.117Z,55.80
2018-09-08T12:52:20.264Z,55.10
2018-09-08T12:54:48.509Z,58.10
2018-09-08T12:57:16.706Z,56.50
2018-09-08T12:59:44.860Z,56.00
2018-09-08T13:02:13.011Z,54.80
2018-09-08T13:04:41.169Z,57.60
2018-09-08T13:07:09.312Z,55.70
2018-09-08T13:09:37.464Z,54.70
2018-09-08T13:12:05.728Z,55.70
2018-09-08T13:14:33.882Z,54.20
2018-09-08T13:17:02.031Z,54.70
2018-09-08T13:19:30.176Z,53.10
2018-09-08T13:21:58.340Z,55.10
2018-09-08T13:24:26.492Z,55.40
2018-09-08T13:26:54.664Z,56.10
2018-09-08T13:29:22.832Z,55.30
2018-09-08T13:31:50.980Z,54.50
2018-09-08T13:34:19.132Z,54.20
2018-09-08T13:36:47.310Z,54.50
2018-09-08T13:39:15.456Z,55.20
2018-09-08T13:41:43.616Z,55.50
2018-09-08T13:44:11.796Z,54.10
2018-09-08T13:46:39.950Z,54.00
2018-09-08T13:49:08.131Z,54.40
2018-09-08T13:51:36.293Z,55.00
2018-09-08T13:54:04.436Z,55.50
2018-09-08T13:56:32.612Z,55.70
2018-09-08T13:59:00.768Z,55.30
2018-09-08T14:01:28.920Z,55.00
2018-09-08T14:03:57.084Z,56.10
2018-09-08T14:06:25.253Z,57.10
2018-09-08T14:08:53.396Z,57.90
2018-09-08T14:11:21.539Z,57.00
2018-09-08T14:13:49.744Z,57.90
2018-09-08T14:16:17.888Z,57.50
2018-09-08T14:18:46.075Z,58.60
2018-09-08T14:21:14.220Z,58.10
2018-09-08T14:26:10.289Z,58.80
2018-09-08T14:28:38.470Z,60.10
2018-09-08T14:31:10.439Z,59.90
2018-09-08T14:33:38.661Z,59.20
2018-09-08T14:36:07.001Z,59.40
2018-09-08T14:38:35.242Z,59.40
2018-09-08T14:41:06.082Z,59.00
2018-09-08T14:43:37.036Z,59.40
2018-09-08T14:46:05.465Z,59.50
2018-09-08T14:48:33.730Z,59.50
2018-09-08T14:51:01.997Z,60.00
2018-09-08T14:53:30.277Z,60.50
2018-09-08T14:55:58.477Z,60.00
2018-09-08T14:58:26.752Z,60.80
2018-09-08T15:00:55.009Z,60.00
2018-09-08T15:03:23.245Z,60.10
2018-09-08T15:05:51.553Z,60.90
2018-09-08T15:08:19.877Z,60.10
2018-09-08T15:10:48.139Z,60.40
2018-09-08T15:13:16.423Z,59.60
2018-09-08T15:15:44.687Z,59.00
2018-09-08T15:18:13.177Z,59.40
2018-09-08T15:20:41.478Z,59.60
2018-09-08T15:23:09.668Z,59.50
2018-09-08T15:25:37.951Z,59.80
2018-09-08T15:28:06.229Z,60.30
2018-09-08T15:30:34.529Z,61.00
2018-09-08T15:33:02.676Z,61.30
2018-09-08T15:35:30.821Z,63.10
2018-09-08T15:37:59.068Z,63.00
2018-09-08T15:40:27.228Z,63.10
2018-09-08T15:42:55.381Z,63.60
2018-09-08T15:45:23.585Z,64.50
2018-09-08T15:47:51.815Z,64.20
2018-09-08T15:50:19.986Z,65.50
2018-09-08T15:52:48.136Z,66.00
2018-09-08T15:55:16.292Z,65.00
2018-09-08T15:57:44.462Z,67.40
2018-09-08T16:00:12.608Z,66.50
2018-09-08T16:02:41.588Z,66.10
2018-09-08T16:05:09.785Z,66.50
2018-09-08T16:07:37.944Z,66.80
2018-09-08T22:21:18.982Z,93.40
2018-09-08T22:23:47.292Z,93.60
2018-09-08T22:26:15.533Z,94.00
2018-09-08T22:28:43.751Z,94.20
2018-09-08T22:31:11.945Z,94.60
2018-09-08T22:33:40.142Z,94.90
2018-09-08T22:36:08.335Z,94.90
2018-09-08T22:38:36.534Z,94.90
2018-09-08T22:41:04.789Z,95.20
2018-09-08T22:43:32.989Z,95.40
2018-09-08T22:46:01.201Z,95.50
2018-09-08T22:48:29.387Z,95.50
2018-09-08T22:50:57.590Z,95.40
2018-09-08T22:53:25.912Z,95.00
2018-09-08T22:55:54.142Z,95.30
2018-09-08T22:58:22.338Z,95.40
2018-09-08T23:00:50.612Z,95.20
2018-09-08T23:03:18.809Z,95.20
2018-09-08T23:05:47.856Z,95.20
2018-09-08T23:08:16.173Z,95.10
2018-09-08T23:10:44.407Z,95.40
2018-09-08T23:13:12.651Z,95.50
2018-09-08T23:15:41.215Z,95.50
2018-09-08T23:18:09.428Z,95.70
2018-09-08T23:20:37.696Z,95.70
2018-09-08T23:23:06.276Z,95.90
2018-09-08T23:25:34.968Z,96.30
2018-09-08T23:28:03.184Z,96.50
2018-09-08T23:30:31.406Z,96.80
2018-09-08T23:32:59.619Z,96.80
2018-09-08T23:35:27.796Z,97.00
2018-09-08T23:37:56.121Z,97.20
2018-09-08T23:40:24.719Z,97.30
2018-09-08T23:42:53.143Z,97.40
2018-09-08T23:45:21.350Z,97.00
2018-09-08T23:47:49.584Z,96.90
2018-09-08T23:50:17.803Z,96.80
2018-09-08T23:52:46.000Z,96.80
2018-09-08T23:55:14.193Z,96.80
2018-09-08T23:57:42.428Z,96.90
